createdAt,value
2022-08-05T00:01:35.477Z,28.80
2022-08-05T00:06:39.943Z,29.00
2022-08-05T00:11:48.300Z,29.00
2022-08-05T00:16:54.060Z,29.00
2022-08-05T00:21:57.592Z,29.10
2022-08-05T00:27:01.329Z,29.10
2022-08-05T00:32:15.276Z,29.20
2022-08-05T00:37:19.212Z,29.50
2022-08-05T00:42:32.669Z,29.30
2022-08-05T00:47:56.834Z,29.70
2022-08-05T00:53:01.007Z,29.50
2022-08-05T00:58:04.856Z,29.50
2022-08-05T01:03:10.563Z,29.60
2022-08-05T01:08:39.126Z,29.80
2022-08-05T01:13:59.779Z,29.70
2022-08-05T01:19:17.088Z,30.10
2022-08-05T01:24:36.181Z,30.20
2022-08-05T01:29:46.805Z,30.20
2022-08-05T01:34:55.876Z,30.20
2022-08-05T01:40:02.122Z,30.20
2022-08-05T01:45:09.314Z,30.20
2022-08-05T01:50:18.606Z,30.50
2022-08-05T01:55:36.328Z,30.50
2022-08-05T02:00:45.894Z,30.70
2022-08-05T02:05:50.237Z,31.00
2022-08-05T02:11:03.608Z,30.70
2022-08-05T02:16:22.141Z,31.10
2022-08-05T02:21:37.994Z,31.50
2022-08-05T02:26:51.884Z,31.30
2022-08-05T02:31:59.507Z,31.20
2022-08-05T02:37:11.462Z,31.50
2022-08-05T02:42:25.688Z,31.80
2022-08-05T02:48:06.465Z,31.60
2022-08-05T02:52:55.503Z,31.90
2022-08-05T02:58:09.460Z,31.80
2022-08-05T03:03:20.172Z,31.90
2022-08-05T03:08:30.018Z,32.20
2022-08-05T03:13:51.177Z,32.00
2022-08-05T03:18:58.153Z,32.00
2022-08-05T03:24:02.533Z,32.20
2022-08-05T03:29:06.703Z,32.10
2022-08-05T03:34:17.278Z,32.20
2022-08-05T03:39:27.255Z,32.20
2022-08-05T03:44:31.157Z,32.20
2022-08-05T03:49:51.687Z,32.10
2022-08-05T03:56:05.294Z,32.20
2022-08-05T04:00:26.729Z,32.20
2022-08-05T04:05:34.846Z,32.20
2022-08-05T04:10:39.213Z,32.20
2022-08-05T04:16:02.764Z,32.10
2022-08-05T04:21:10.936Z,32.00
2022-08-05T04:26:15.413Z,32.20
2022-08-05T04:31:21.543Z,32.40
2022-08-05T04:36:49.626Z,32.20
2022-08-05T04:41:51.234Z,32.30
2022-08-05T04:46:54.690Z,32.30
2022-08-05T04:52:00.423Z,32.40
2022-08-05T04:57:04.135Z,32.50
2022-08-05T05:02:36.136Z,32.60
2022-08-05T05:07:35.625Z,32.50
2022-08-05T05:12:39.543Z,32.70
2022-08-05T05:17:57.193Z,32.80
2022-08-05T05:23:08.096Z,32.80
2022-08-05T05:28:13.154Z,32.90
2022-08-05T05:33:17.556Z,32.80
2022-08-05T05:38:27.102Z,32.80
2022-08-05T05:43:56.892Z,32.80
2022-08-05T05:48:54.357Z,32.80
2022-08-05T05:54:00.089Z,32.80
2022-08-05T05:59:05.322Z,32.80
2022-08-05T06:04:11.870Z,32.90
2022-08-05T06:09:24.922Z,32.90
2022-08-05T06:14:31.190Z,32.90
2022-08-05T06:19:35.705Z,32.90
2022-08-05T06:24:48.114Z,32.90
2022-08-05T06:30:04.259Z,33.00
2022-08-05T06:35:21.689Z,32.90
2022-08-05T06:40:42.141Z,32.90
2022-08-05T06:46:03.999Z,33.00
2022-08-05T06:51:11.991Z,33.00
2022-08-05T06:56:29.106Z,33.00
2022-08-05T07:01:33.147Z,33.20
2022-08-05T07:06:36.698Z,33.20
2022-08-05T07:11:41.337Z,33.10
2022-08-05T07:17:56.351Z,33.20
2022-08-05T07:22:15.788Z,33.20
2022-08-05T07:27:21.582Z,33.10
2022-08-05T07:32:26.321Z,33.10
2022-08-05T07:37:29.791Z,33.00
2022-08-05T07:42:42.480Z,33.00
2022-08-05T07:47:47.418Z,33.00
2022-08-05T07:52:50.713Z,33.00
2022-08-05T07:58:02.823Z,32.90
2022-08-05T08:03:14.598Z,32.80
2022-08-05T08:08:20.093Z,32.70
2022-08-05T08:13:29.042Z,32.70
2022-08-05T08:18:32.846Z,32.70
2022-08-05T08:24:02.637Z,32.40
2022-08-05T08:30:03.397Z,32.30
2022-08-05T08:34:30.285Z,32.10
2022-08-05T08:39:37.201Z,32.00
2022-08-05T08:45:19.091Z,31.90
2022-08-05T08:50:30.580Z,31.70
2022-08-05T08:56:04.083Z,31.70
2022-08-05T09:00:57.602Z,31.50
2022-08-05T09:06:08.911Z,31.30
2022-08-05T09:11:15.352Z,31.10
2022-08-05T09:16:21.123Z,31.60
2022-08-05T09:22:23.040Z,30.60
2022-08-05T09:26:57.003Z,30.50
2022-08-05T09:32:51.103Z,30.30
2022-08-05T09:38:16.773Z,30.10
2022-08-05T09:42:55.867Z,30.10
2022-08-05T09:48:01.008Z,30.50
2022-08-05T09:53:04.300Z,29.80
2022-08-05T09:58:12.374Z,29.70
2022-08-05T10:03:17.203Z,29.50
2022-08-05T10:08:37.676Z,29.50
2022-08-05T10:13:45.741Z,29.30
2022-08-05T10:18:52.846Z,29.40
2022-08-05T10:24:00.295Z,29.00
2022-08-05T10:29:04.539Z,28.80
2022-08-05T10:34:10.410Z,28.70
2022-08-05T10:39:24.847Z,28.40
2022-08-05T10:44:46.466Z,28.10
2022-08-05T10:50:31.980Z,28.20
2022-08-05T10:55:32.734Z,27.30
2022-08-05T11:00:47.588Z,27.60
2022-08-05T11:06:14.634Z,27.20
2022-08-05T11:11:44.348Z,26.90
2022-08-05T11:18:00.451Z,26.40
2022-08-05T11:22:57.985Z,26.30
2022-08-05T11:28:44.362Z,26.40
2022-08-05T11:33:56.021Z,25.90
2022-08-05T11:39:03.410Z,25.60
2022-08-05T11:44:10.937Z,25.70
2022-08-05T11:49:16.339Z,25.60
2022-08-05T11:54:33.706Z,25.50
2022-08-05T11:59:49.387Z,24.80
2022-08-05T12:04:59.175Z,25.60
2022-08-05T12:10:09.277Z,25.00
2022-08-05T12:15:28.168Z,24.70
2022-08-05T12:20:41.950Z,24.40
2022-08-05T12:25:56.735Z,24.70
2022-08-05T12:31:02.282Z,24.10
2022-08-05T12:36:08.874Z,24.50
2022-08-05T12:41:16.878Z,24.40
2022-08-05T12:46:28.802Z,24.20
2022-08-05T12:52:12.541Z,22.90
2022-08-05T12:57:01.066Z,22.80
2022-08-05T13:02:07.904Z,22.60
2022-08-05T13:07:16.136Z,22.70
2022-08-05T13:12:28.576Z,22.70
2022-08-05T13:17:41.444Z,22.40
2022-08-05T13:22:50.639Z,22.20
2022-08-05T13:27:57.451Z,21.80
2022-08-05T13:33:02.181Z,21.90
2022-08-05T13:38:06.046Z,22.10
2022-08-05T13:43:12.171Z,22.00
2022-08-05T13:48:58.358Z,21.90
2022-08-05T13:53:47.795Z,21.90
2022-08-05T13:58:53.955Z,21.80
2022-08-05T14:04:14.448Z,21.80
2022-08-05T14:09:18.358Z,21.70
2022-08-05T14:14:32.329Z,21.70
2022-08-05T14:19:55.242Z,21.60
2022-08-05T14:25:00.452Z,21.50
2022-08-05T14:30:05.916Z,21.50
2022-08-05T14:35:37.353Z,21.40
2022-08-05T14:40:48.236Z,21.40
2022-08-05T14:45:53.295Z,21.50
2022-08-05T14:50:56.949Z,21.40
2022-08-05T14:56:00.406Z,21.30
2022-08-05T15:01:05.329Z,21.40
2022-08-05T15:06:19.761Z,21.30
2022-08-05T15:11:51.903Z,21.50
2022-08-05T15:16:56.762Z,21.50
2022-08-05T15:22:01.301Z,21.50
2022-08-05T15:27:04.955Z,21.60
2022-08-05T15:32:14.143Z,21.80
2022-08-05T15:38:32.797Z,21.80
2022-08-05T15:42:54.786Z,22.00
2022-08-05T15:48:04.324Z,22.10
2022-08-05T15:53:09.219Z,22.10
2022-08-05T15:58:16.730Z,22.30
2022-08-05T16:03:21.981Z,22.40
2022-08-05T16:08:25.261Z,22.50
2022-08-05T16:13:34.936Z,22.60
2022-08-05T16:18:52.408Z,22.70
2022-08-05T16:24:00.155Z,22.80
2022-08-05T16:29:06.358Z,22.90
2022-08-05T16:34:13.082Z,23.00
2022-08-05T16:39:18.666Z,23.10
2022-08-05T16:44:25.762Z,23.20
2022-08-05T16:49:30.810Z,23.30
2022-08-05T16:54:34.122Z,23.40
2022-08-05T16:59:49.590Z,23.50
2022-08-05T17:05:02.127Z,23.50
2022-08-05T17:10:05.893Z,23.70
2022-08-05T17:15:09.807Z,23.70
2022-08-05T17:20:20.398Z,23.70
2022-08-05T17:25:39.588Z,23.80
2022-08-05T17:30:50.735Z,23.80
2022-08-05T17:36:08.983Z,23.90
2022-08-05T17:42:16.942Z,24.00
2022-08-05T17:46:36.815Z,24.10
2022-08-05T17:51:41.659Z,24.20
2022-08-05T17:56:45.049Z,24.30
2022-08-05T18:01:52.444Z,24.30
2022-08-05T18:07:00.302Z,24.50
2022-08-05T18:12:04.927Z,24.50
2022-08-05T18:18:01.596Z,24.70
2022-08-05T18:22:46.182Z,24.70
2022-08-05T18:27:56.362Z,24.80
2022-08-05T18:33:01.025Z,24.90
2022-08-05T18:38:06.032Z,25.00
2022-08-05T18:43:16.614Z,25.10
2022-08-05T18:48:31.193Z,25.20
2022-08-05T18:53:42.961Z,25.30
2022-08-05T18:58:50.865Z,25.50
2022-08-05T19:03:57.179Z,25.50
2022-08-05T19:09:02.087Z,25.60
2022-08-05T19:14:37.518Z,25.90
2022-08-05T19:19:31.116Z,26.10
2022-08-05T19:24:36.420Z,26.20
2022-08-05T19:29:40.292Z,26.70
2022-08-05T19:34:55.317Z,26.90
2022-08-05T19:40:01.128Z,27.80
2022-08-05T19:45:06.666Z,27.60
2022-08-05T19:50:12.128Z,27.70
2022-08-05T19:56:13.856Z,27.70
2022-08-05T20:00:40.924Z,28.00
2022-08-05T20:05:51.406Z,28.30
2022-08-05T20:10:58.192Z,28.40
2022-08-05T20:16:01.812Z,28.40
2022-08-05T20:21:08.269Z,28.30
2022-08-05T20:26:16.224Z,28.40
2022-08-05T20:31:21.385Z,28.50
2022-08-05T20:36:26.654Z,28.50
2022-08-05T20:41:44.371Z,28.70
2022-08-05T20:46:48.911Z,29.00
2022-08-05T20:51:53.351Z,28.80
2022-08-05T20:56:58.964Z,28.90
2022-08-05T21:02:02.418Z,29.10
2022-08-05T21:07:08.924Z,29.10
2022-08-05T21:12:13.661Z,29.20
2022-08-05T21:17:20.466Z,29.30
2022-08-05T21:22:25.462Z,29.50
2022-08-05T21:27:38.883Z,29.40
2022-08-05T21:32:42.486Z,29.70
2022-08-05T21:37:47.395Z,29.70
2022-08-05T21:42:59.061Z,29.90
2022-08-05T21:48:06.263Z,29.90
2022-08-05T21:53:17.399Z,30.00
2022-08-05T21:58:24.853Z,30.10
2022-08-05T22:03:52.659Z,30.30
2022-08-05T22:08:56.949Z,30.30
2022-08-05T22:14:19.561Z,30.30
2022-08-05T22:20:03.522Z,30.40
2022-08-05T22:25:17.659Z,30.40
2022-08-05T22:30:32.166Z,30.50
2022-08-05T22:35:47.986Z,30.50
2022-08-05T22:40:54.921Z,31.10
2022-08-05T22:46:00.299Z,30.40
2022-08-05T22:51:06.858Z,30.50
2022-08-05T22:56:10.553Z,30.50
2022-08-05T23:01:17.858Z,30.50
2022-08-05T23:06:26.241Z,30.50
2022-08-05T23:11:29.961Z,30.50
2022-08-05T23:16:53.370Z,30.50
2022-08-05T23:21:56.634Z,30.60
2022-08-05T23:27:00.000Z,30.80
2022-08-05T23:32:06.026Z,30.90
2022-08-05T23:37:09.383Z,31.50
2022-08-05T23:42:14.769Z,31.40
2022-08-05T23:47:28.274Z,31.70
2022-08-05T23:52:49.787Z,32.00
2022-08-05T23:57:54.300Z,31.70
